Time;durP1;ratioP1;P1;durP2;ratioP2;P2;SDS_P1;SDS_P2;PMS_P1;PMS_P2;Temp;Humidity;BMP_temperature;BMP_pressure;BME280_temperature;BME280_humidity;BME280_pressure;Samples;Min_cycle;Max_cycle;Signal;HPM_P1;HPM_P2
2022/06/07 00:01:42;;;;;;;2.63;2.43;;;16.90;98.20;;;;;;5003809;28;20492;-56
2022/06/07 00:04:08;;;;;;;4.63;3.00;;;16.90;98.30;;;;;;5001581;28;20491;-54
2022/06/07 00:06:35;;;;;;;3.70;2.50;;;16.90;98.50;;;;;;5014835;28;20506;-55
2022/06/07 00:09:02;;;;;;;4.70;4.30;;;;;;;;;;5006149;28;20626;-56
2022/06/07 00:11:29;;;;;;;3.70;3.00;;;16.90;97.90;;;;;;4998750;28;20832;-54
2022/06/07 00:13:56;;;;;;;5.47;4.70;;;16.80;97.80;;;;;;4991339;28;20501;-54
2022/06/07 00:16:23;;;;;;;6.23;5.70;;;;;;;;;;4985003;28;20481;-55
2022/06/07 00:18:51;;;;;;;3.97;3.60;;;16.80;98.10;;;;;;4984879;28;20485;-55
2022/06/07 00:21:18;;;;;;;6.80;6.20;;;16.90;98.20;;;;;;4983035;28;20509;-55
2022/06/07 00:23:45;;;;;;;3.13;2.83;;;17.00;97.90;;;;;;4985226;28;20485;-55
2022/06/07 00:26:11;;;;;;;4.07;3.70;;;17.00;97.50;;;;;;4988723;28;20487;-56
2022/06/07 00:28:38;;;;;;;4.77;3.63;;;17.10;97.50;;;;;;4992193;28;20893;-56
2022/06/07 00:31:05;;;;;;;5.33;4.73;;;17.30;97.40;;;;;;4988105;28;20487;-55
2022/06/07 00:33:32;;;;;;;4.10;3.50;;;17.20;97.30;;;;;;4987186;28;20477;-56
2022/06/07 00:36:00;;;;;;;5.20;4.30;;;17.20;97.60;;;;;;4988058;28;21094;-55
2022/06/07 00:38:27;;;;;;;11.80;6.73;;;17.20;97.60;;;;;;4986451;28;20484;-55
2022/06/07 00:40:54;;;;;;;8.10;5.00;;;17.20;97.50;;;;;;4988687;28;20488;-56
2022/06/07 00:43:23;;;;;;;11.43;8.23;;;17.20;97.90;;;;;;5008140;28;20477;-56
2022/06/07 00:45:50;;;;;;;6.97;4.10;;;17.20;97.60;;;;;;4986509;28;20741;-55
2022/06/07 00:48:18;;;;;;;7.53;6.37;;;17.10;97.60;;;;;;4994448;28;20485;-56
2022/06/07 00:50:50;;;;;;;3.90;2.87;;;17.10;97.50;;;;;;4987456;28;20507;-55
2022/06/07 00:53:23;;;;;;;23.20;5.33;;;17.20;97.50;;;;;;4989552;28;20478;-55
2022/06/07 00:55:51;;;;;;;5.87;4.40;;;17.30;97.50;;;;;;4990536;28;20509;-55
2022/06/07 00:58:18;;;;;;;5.57;5.10;;;17.30;97.60;;;;;;4986282;28;21006;-55
2022/06/07 01:00:45;;;;;;;6.13;3.37;;;17.20;97.80;;;;;;4986606;28;20495;-55
2022/06/07 01:03:12;;;;;;;5.63;5.07;;;17.20;97.60;;;;;;5000488;28;20488;-55
2022/06/07 01:05:39;;;;;;;3.83;3.53;;;17.10;97.80;;;;;;4988337;28;20473;-55
2022/06/07 01:10:56;;;;;;;5.63;4.77;;;16.90;97.80;;;;;;4979250;28;20759;-56
2022/06/07 01:13:27;;;;;;;10.53;3.37;;;16.90;97.80;;;;;;5003219;28;21050;-55
2022/06/07 01:15:58;;;;;;;4.43;4.13;;;16.90;98.20;;;;;;4990231;28;20486;-55
2022/06/07 01:18:25;;;;;;;5.50;5.00;;;16.90;98.10;;;;;;4990227;28;20505;-55
2022/06/07 01:21:18;;;;;;;5.53;3.50;;;16.80;98.00;;;;;;4989231;28;21014;-54
2022/06/07 01:23:46;;;;;;;15.63;3.87;;;16.80;98.30;;;;;;4987506;28;20473;-55
2022/06/07 01:26:13;;;;;;;4.20;3.80;;;16.80;98.20;;;;;;4985273;28;20489;-56
2022/06/07 01:28:41;;;;;;;4.87;4.03;;;16.80;98.10;;;;;;4990054;28;21470;-55
2022/06/07 01:31:08;;;;;;;8.60;3.10;;;16.90;98.40;;;;;;4988977;28;20489;-56
2022/06/07 01:33:34;;;;;;;5.67;4.20;;;16.90;98.40;;;;;;4988989;28;20502;-55
2022/06/07 01:36:02;;;;;;;6.43;4.63;;;16.90;98.30;;;;;;4990735;28;20987;-56
2022/06/07 01:38:33;;;;;;;10.03;4.40;;;16.90;98.60;;;;;;4988287;28;20480;-56
2022/06/07 01:43:44;;;;;;;9.00;3.23;;;16.80;98.50;;;;;;4979562;28;20485;-55
2022/06/07 01:46:11;;;;;;;4.37;3.97;;;16.70;98.40;;;;;;4989785;28;20478;-54
2022/06/07 01:48:38;;;;;;;4.93;4.40;;;16.60;98.50;;;;;;4989426;28;20478;-55
2022/06/07 01:51:07;;;;;;;7.30;3.93;;;16.60;98.70;;;;;;4989203;28;20470;-54
2022/06/07 01:53:35;;;;;;;6.27;4.93;;;16.60;98.70;;;;;;4987563;28;20486;-57
2022/06/07 01:56:04;;;;;;;4.57;4.17;;;16.70;98.60;;;;;;4989740;28;20491;-56
2022/06/07 01:58:30;;;;;;;6.00;3.23;;;16.70;98.50;;;;;;4989843;28;20483;-56
2022/06/07 02:00:57;;;;;;;5.43;4.83;;;16.70;98.60;;;;;;5001386;28;20485;-57
2022/06/07 02:03:24;;;;;;;8.20;7.30;;;16.80;98.70;;;;;;5005862;28;20484;-56
2022/06/07 02:05:55;;;;;;;8.20;3.60;;;16.70;98.60;;;;;;5009425;28;21034;-57
2022/06/07 02:08:22;;;;;;;7.33;6.63;;;16.70;98.70;;;;;;5007629;28;20577;-56
2022/06/07 02:10:50;;;;;;;5.20;4.00;;;;;;;;;;5008283;28;20500;-57
2022/06/07 02:13:17;;;;;;;7.77;6.73;;;16.60;98.80;;;;;;5009387;28;20491;-57
2022/06/07 02:15:44;;;;;;;4.73;3.43;;;16.70;98.70;;;;;;5007443;28;20924;-57
2022/06/07 02:18:11;;;;;;;4.43;4.03;;;;;;;;;;4989591;28;20482;-56
2022/06/07 02:20:38;;;;;;;4.93;3.57;;;16.80;98.80;;;;;;4988857;28;20488;-56
2022/06/07 02:23:05;;;;;;;6.87;4.63;;;16.70;98.70;;;;;;4989478;28;20577;-57
2022/06/07 02:25:38;;;;;;;5.93;5.00;;;16.80;98.50;;;;;;4981757;28;21028;-56
2022/06/07 02:28:06;;;;;;;4.83;4.17;;;16.70;98.60;;;;;;4999823;28;23228;-57
2022/06/07 02:30:33;;;;;;;6.17;4.93;;;16.70;98.70;;;;;;4985073;28;20481;-57
2022/06/07 02:33:00;;;;;;;5.30;4.30;;;16.70;99.20;;;;;;4987452;28;21020;-56
2022/06/07 02:35:27;;;;;;;7.80;5.87;;;16.70;99.20;;;;;;4988990;28;20851;-56
2022/06/07 02:37:54;;;;;;;4.57;3.37;;;16.70;99.00;;;;;;4989646;28;20485;-57
2022/06/07 02:40:21;;;;;;;9.13;5.80;;;16.80;98.60;;;;;;5030004;28;20480;-57
2022/06/07 02:42:47;;;;;;;3.53;3.17;;;16.80;98.50;;;;;;5009064;28;20476;-57
2022/06/07 02:45:16;;;;;;;6.50;5.90;;;16.70;98.50;;;;;;5006717;28;20484;-56
2022/06/07 02:47:43;;;;;;;4.63;4.07;;;16.60;98.70;;;;;;4997991;28;20472;-53
2022/06/07 02:50:11;;;;;;;6.17;5.43;;;16.50;98.70;;;;;;5006706;28;20477;-54
2022/06/07 02:52:37;;;;;;;5.90;4.63;;;16.40;98.70;;;;;;5008715;28;20978;-55
2022/06/07 02:55:05;;;;;;;7.53;4.70;;;16.40;98.80;;;;;;5003877;28;20480;-55
2022/06/07 02:57:32;;;;;;;6.40;4.80;;;16.50;98.70;;;;;;5006456;28;20480;-56
2022/06/07 02:59:58;;;;;;;6.20;5.53;;;16.60;98.70;;;;;;5006289;28;20810;-55
2022/06/07 03:02:27;;;;;;;7.93;6.70;;;16.60;98.40;;;;;;5019333;28;20489;-55
2022/06/07 03:04:54;;;;;;;5.40;4.90;;;16.60;98.20;;;;;;4986887;28;20477;-55
2022/06/07 03:07:21;;;;;;;9.40;7.50;;;16.60;98.00;;;;;;4986677;28;21039;-56
2022/06/07 03:09:47;;;;;;;12.30;3.93;;;16.70;97.90;;;;;;4997686;28;20486;-54
2022/06/07 03:12:14;;;;;;;5.83;5.27;;;16.70;97.80;;;;;;4999315;28;20481;-54
2022/06/07 03:14:41;;;;;;;3.23;2.90;;;16.70;97.90;;;;;;4994472;28;20485;-55
2022/06/07 03:17:08;;;;;;;11.80;3.60;;;16.70;97.70;;;;;;4989951;28;20512;-54
2022/06/07 03:19:36;;;;;;;3.30;3.00;;;16.70;98.10;;;;;;4995393;28;20544;-55
2022/06/07 03:22:04;;;;;;;4.87;3.90;;;16.60;98.10;;;;;;5008472;28;20493;-55
2022/06/07 03:24:31;;;;;;;9.53;2.70;;;16.40;98.40;;;;;;4998541;28;20468;-55
2022/06/07 03:26:57;;;;;;;4.97;4.27;;;16.30;98.60;;;;;;5005650;28;20486;-54
2022/06/07 03:29:24;;;;;;;6.30;5.53;;;16.30;98.70;;;;;;5000648;28;20486;-55
2022/06/07 03:31:51;;;;;;;3.70;2.40;;;16.30;98.70;;;;;;5002767;28;21022;-55
2022/06/07 03:34:18;;;;;;;5.80;5.13;;;16.30;98.40;;;;;;4999791;28;20473;-55
2022/06/07 03:36:46;;;;;;;3.93;2.90;;;16.30;98.10;;;;;;4996315;28;20982;-54
2022/06/07 03:39:13;;;;;;;5.87;4.63;;;16.30;98.00;;;;;;4998445;28;20496;-56
2022/06/07 03:41:40;;;;;;;3.07;2.70;;;16.30;97.90;;;;;;4997890;28;20486;-55
2022/06/07 03:44:07;;;;;;;4.07;3.67;;;16.30;97.60;;;;;;4996724;28;20521;-55
2022/06/07 03:46:34;;;;;;;9.83;3.50;;;16.30;97.50;;;;;;4995828;28;20478;-55
2022/06/07 03:49:03;;;;;;;4.20;3.90;;;16.30;97.60;;;;;;4996817;28;20999;-55
2022/06/07 03:51:31;;;;;;;4.30;3.90;;;16.20;97.80;;;;;;4997898;28;20513;-55
2022/06/07 03:54:00;;;;;;;10.33;3.70;;;16.20;98.00;;;;;;4998681;28;20486;-55
2022/06/07 03:56:27;;;;;;;6.10;4.60;;;16.10;97.90;;;;;;4999003;28;20488;-55
2022/06/07 03:58:54;;;;;;;4.53;3.80;;;16.10;97.90;;;;;;4990588;28;20490;-56
2022/06/07 04:01:23;;;;;;;8.73;5.63;;;16.10;98.00;;;;;;5012873;28;20474;-56
2022/06/07 04:03:53;;;;;;;4.70;4.20;;;16.10;97.90;;;;;;4995862;28;21123;-55
2022/06/07 04:06:22;;;;;;;7.20;6.50;;;16.20;98.10;;;;;;4967843;28;20488;-55
2022/06/07 04:08:50;;;;;;;3.23;2.50;;;16.20;98.20;;;;;;5006967;28;20488;-55
2022/06/07 04:11:20;;;;;;;10.23;5.27;;;16.20;98.30;;;;;;4999002;28;20494;-56
2022/06/07 04:13:48;;;;;;;11.33;3.27;;;16.20;98.40;;;;;;4976450;28;20481;-57
2022/06/07 04:16:17;;;;;;;6.17;3.67;;;16.20;98.60;;;;;;4999301;28;20489;-56
2022/06/07 04:18:44;;;;;;;4.97;3.60;;;16.10;98.70;;;;;;4998501;28;20482;-56
2022/06/07 04:21:12;;;;;;;17.93;5.40;;;16.10;99.10;;;;;;4999345;28;20485;-56
2022/06/07 04:23:39;;;;;;;4.03;3.63;;;15.90;99.70;;;;;;4999305;28;20485;-56
2022/06/07 04:26:07;;;;;;;4.80;3.70;;;15.80;99.90;;;;;;4999819;28;20478;-56
2022/06/07 04:28:35;;;;;;;8.63;4.37;;;15.70;99.90;;;;;;4998826;28;20987;-56
2022/06/07 04:31:02;;;;;;;5.33;4.23;;;15.70;99.90;;;;;;4992985;28;21292;-56
2022/06/07 04:33:29;;;;;;;7.10;6.00;;;15.70;99.90;;;;;;4984819;28;20488;-56
2022/06/07 04:35:56;;;;;;;7.83;3.67;;;15.80;99.90;;;;;;5001057;28;20486;-56
2022/06/07 04:38:23;;;;;;;7.80;7.03;;;15.90;99.90;;;;;;4998832;28;20481;-55
2022/06/07 04:40:49;;;;;;;4.90;4.50;;;15.90;99.90;;;;;;4999092;28;20485;-56
2022/06/07 04:43:16;;;;;;;8.20;4.03;;;16.00;99.90;;;;;;4996534;28;20482;-56
2022/06/07 04:45:44;;;;;;;4.20;3.80;;;16.10;99.90;;;;;;4999204;28;20478;-55
2022/06/07 04:48:12;;;;;;;4.83;4.27;;;16.10;99.90;;;;;;4998282;28;20870;-56
2022/06/07 04:50:39;;;;;;;9.00;4.10;;;16.10;99.90;;;;;;5007311;28;20484;-55
2022/06/07 04:53:06;;;;;;;4.60;4.20;;;16.20;99.90;;;;;;5016392;28;20485;-55
2022/06/07 04:55:32;;;;;;;4.37;3.90;;;16.30;99.90;;;;;;5018471;28;20484;-56
2022/06/07 04:57:59;;;;;;;8.73;3.63;;;16.50;99.90;;;;;;5015146;28;20491;-56
2022/06/07 05:00:26;;;;;;;5.33;4.83;;;16.60;99.90;;;;;;5017207;28;20476;-55
2022/06/07 05:02:55;;;;;;;3.50;3.20;;;16.70;99.90;;;;;;5016108;28;20484;-56
2022/06/07 05:05:22;;;;;;;7.90;4.47;;;16.80;99.90;;;;;;5018807;28;20837;-56
2022/06/07 05:07:48;;;;;;;3.90;3.30;;;16.90;99.90;;;;;;5010208;28;20892;-56
2022/06/07 05:10:16;;;;;;;6.53;5.83;;;16.90;99.90;;;;;;5025566;28;20894;-55
2022/06/07 05:12:43;;;;;;;6.20;3.03;;;17.00;99.90;;;;;;5003892;28;20766;-56
2022/06/07 05:15:11;;;;;;;6.40;3.87;;;17.10;99.90;;;;;;4997651;28;20485;-56
2022/06/07 05:17:38;;;;;;;4.27;3.87;;;17.10;99.90;;;;;;4999419;28;20886;-54
2022/06/07 05:20:08;;;;;;;6.50;3.03;;;17.10;99.90;;;;;;4997713;28;20705;-56
2022/06/07 05:22:34;;;;;;;3.47;3.17;;;17.30;99.90;;;;;;4999067;28;20510;-55
2022/06/07 05:25:02;;;;;;;3.43;3.13;;;17.30;99.90;;;;;;4997509;28;20493;-55
2022/06/07 05:27:38;;;;;;;5.03;3.87;;;17.40;99.90;;;;;;4994154;28;20485;-57
2022/06/07 05:30:06;;;;;;;4.40;3.60;;;17.50;99.90;;;;;;5011460;28;20473;-56
2022/06/07 05:32:33;;;;;;;17.20;4.20;;;17.60;99.90;;;;;;4994665;28;20484;-56
2022/06/07 05:34:59;;;;;;;4.33;3.93;;;17.60;99.80;;;;;;5007672;28;20491;-55
2022/06/07 05:37:27;;;;;;;5.03;4.53;;;17.60;99.80;;;;;;5000608;28;20925;-55
2022/06/07 05:39:54;;;;;;;3.30;3.00;;;17.60;99.70;;;;;;5002808;28;20486;-56
2022/06/07 05:42:22;;;;;;;17.40;6.60;;;17.60;99.20;;;;;;4995984;28;20488;-56
2022/06/07 05:44:48;;;;;;;4.23;3.93;;;17.60;99.50;;;;;;5007074;28;20494;-56
2022/06/07 05:47:15;;;;;;;5.40;4.60;;;17.80;99.90;;;;;;4998827;28;20485;-56
2022/06/07 05:49:42;;;;;;;3.47;2.90;;;17.90;99.90;;;;;;4999875;28;20971;-56
2022/06/07 05:52:09;;;;;;;3.97;3.63;;;17.90;99.90;;;;;;5000785;28;20485;-56
2022/06/07 05:54:38;;;;;;;3.60;3.30;;;17.90;99.90;;;;;;5001697;28;20477;-57
2022/06/07 05:57:06;;;;;;;6.43;3.37;;;17.90;99.70;;;;;;5001716;28;20484;-57
2022/06/07 05:59:33;;;;;;;5.40;3.80;;;17.90;99.20;;;;;;4996319;28;20520;-57
2022/06/07 06:01:59;;;;;;;16.57;3.90;;;17.90;99.90;;;;;;5000089;28;20490;-55
2022/06/07 06:04:26;;;;;;;5.60;5.10;;;18.00;99.90;;;;;;4999433;28;21498;-55
2022/06/07 06:06:56;;;;;;;4.07;3.40;;;18.00;99.90;;;;;;5000125;28;20481;-55
2022/06/07 06:12:09;;;;;;;4.77;4.37;;;18.00;99.50;;;;;;5001618;28;21192;-55
2022/06/07 06:14:35;;;;;;;11.87;4.03;;;18.00;99.40;;;;;;5002334;28;20485;-56
2022/06/07 06:17:02;;;;;;;6.17;4.50;;;17.90;99.60;;;;;;4998076;28;20516;-56
2022/06/07 06:19:29;;;;;;;5.50;4.80;;;17.90;99.80;;;;;;5001257;28;20488;-56
2022/06/07 06:21:56;;;;;;;15.93;4.60;;;17.90;99.90;;;;;;5002986;28;20494;-55
2022/06/07 06:24:23;;;;;;;6.83;6.23;;;17.90;99.90;;;;;;4972047;28;24838;-56
2022/06/07 06:26:51;;;;;;;3.53;3.23;;;18.00;99.70;;;;;;4979000;28;20497;-55
2022/06/07 06:29:19;;;;;;;18.43;6.47;;;18.10;99.70;;;;;;4986955;28;20497;-55
2022/06/07 06:31:48;;;;;;;4.27;3.97;;;18.20;99.50;;;;;;4995096;28;20965;-56
2022/06/07 06:34:15;;;;;;;6.97;6.27;;;18.20;99.80;;;;;;4996496;28;21317;-55
2022/06/07 06:36:42;;;;;;;6.70;3.40;;;18.20;99.70;;;;;;5000694;28;20489;-55
2022/06/07 06:39:09;;;;;;;4.50;4.20;;;18.10;99.30;;;;;;4996398;28;20525;-56
2022/06/07 06:41:37;;;;;;;5.50;4.90;;;18.10;99.60;;;;;;4995855;28;20553;-56
2022/06/07 06:44:04;;;;;;;6.30;3.70;;;18.20;99.60;;;;;;4998464;28;20492;-56
2022/06/07 06:46:35;;;;;;;5.63;4.50;;;18.20;99.50;;;;;;5015569;28;20496;-55
2022/06/07 06:49:02;;;;;;;3.90;3.60;;;18.20;99.70;;;;;;4978661;28;20504;-55
2022/06/07 06:51:30;;;;;;;5.93;4.73;;;18.30;99.70;;;;;;4975888;28;20723;-56
2022/06/07 06:53:58;;;;;;;4.60;4.20;;;18.40;98.80;;;;;;4978594;28;20470;-55
2022/06/07 06:56:25;;;;;;;5.40;4.90;;;18.40;98.60;;;;;;4979113;28;20580;-55
2022/06/07 06:58:52;;;;;;;3.47;3.17;;;18.40;98.70;;;;;;4975876;28;20505;-56
2022/06/07 07:01:23;;;;;;;6.80;6.30;;;18.40;98.80;;;;;;4976556;28;20499;-55
2022/06/07 07:03:51;;;;;;;3.93;3.60;;;18.50;98.50;;;;;;4967501;28;20871;-54
2022/06/07 07:06:19;;;;;;;4.20;3.73;;;18.40;98.50;;;;;;4992766;28;20580;-56
2022/06/07 07:08:47;;;;;;;5.70;4.60;;;18.50;99.50;;;;;;4979594;28;20493;-54
2022/06/07 07:11:17;;;;;;;18.57;4.63;;;18.50;98.50;;;;;;4980424;28;20496;-57
2022/06/07 07:13:45;;;;;;;4.30;3.90;;;18.50;98.40;;;;;;4995962;28;20498;-56
2022/06/07 07:16:14;;;;;;;5.17;4.73;;;18.50;98.90;;;;;;4996425;28;20490;-54
2022/06/07 07:18:41;;;;;;;7.40;3.83;;;18.60;98.70;;;;;;4999899;28;20983;-55
2022/06/07 07:21:13;;;;;;;7.10;4.60;;;18.70;98.40;;;;;;4991683;28;20508;-56
2022/06/07 07:23:40;;;;;;;4.53;4.10;;;18.80;98.40;;;;;;4989211;28;21124;-55
2022/06/07 07:26:09;;;;;;;7.60;3.33;;;18.90;98.40;;;;;;4997241;28;21273;-54
2022/06/07 07:28:37;;;;;;;5.40;5.00;;;18.90;97.80;;;;;;4999490;28;20488;-56
2022/06/07 07:31:07;;;;;;;4.73;4.33;;;18.90;98.30;;;;;;4995874;28;20492;-56
2022/06/07 07:33:36;;;;;;;5.23;4.83;;;18.90;98.00;;;;;;4993319;28;20481;-55
2022/06/07 07:36:04;;;;;;;4.80;4.40;;;19.00;97.80;;;;;;4995662;28;20492;-56
2022/06/07 07:38:32;;;;;;;4.53;4.13;;;19.30;98.50;;;;;;4998213;28;20480;-56
2022/06/07 07:40:59;;;;;;;5.07;4.50;;;19.40;98.70;;;;;;4997016;28;21052;-54
2022/06/07 07:43:26;;;;;;;5.97;5.40;;;19.40;96.80;;;;;;4996093;28;20484;-55
2022/06/07 07:45:53;;;;;;;9.73;3.30;;;19.40;97.20;;;;;;4997429;28;20488;-55
2022/06/07 07:48:21;;;;;;;6.43;5.53;;;19.40;96.70;;;;;;4995895;28;20493;-56
2022/06/07 07:50:48;;;;;;;3.80;3.50;;;19.30;96.50;;;;;;4995940;28;20496;-54
2022/06/07 07:53:17;;;;;;;4.97;4.57;;;19.50;97.30;;;;;;4995237;28;20504;-56
2022/06/07 07:55:47;;;;;;;5.50;3.97;;;19.40;96.30;;;;;;4994066;28;20843;-54
2022/06/07 07:58:14;;;;;;;5.87;3.67;;;19.50;96.70;;;;;;4996413;28;20501;-55
2022/06/07 08:00:42;;;;;;;7.97;4.00;;;19.60;95.90;;;;;;4985096;28;21021;-55
2022/06/07 08:03:09;;;;;;;5.20;4.83;;;19.60;96.10;;;;;;4993817;28;20576;-55
2022/06/07 08:05:36;;;;;;;4.77;4.00;;;19.60;96.30;;;;;;4999391;28;21006;-55
2022/06/07 08:08:04;;;;;;;8.13;3.70;;;19.60;95.70;;;;;;5001802;28;20496;-54
2022/06/07 08:10:30;;;;;;;4.67;4.37;;;19.60;96.30;;;;;;4993547;28;20493;-52
2022/06/07 08:12:59;;;;;;;4.00;3.70;;;19.70;95.70;;;;;;4993789;28;20492;-55
2022/06/07 08:15:29;;;;;;;8.63;4.33;;;19.70;96.60;;;;;;4998467;28;20717;-55
2022/06/07 08:17:57;;;;;;;4.30;3.77;;;19.70;96.30;;;;;;4999953;28;20501;-54
2022/06/07 08:20:24;;;;;;;5.83;5.33;;;19.80;95.80;;;;;;4994448;28;20891;-56
2022/06/07 08:22:51;;;;;;;4.73;3.20;;;19.90;95.40;;;;;;4989254;28;20506;-55
2022/06/07 08:25:18;;;;;;;5.60;5.10;;;19.90;96.00;;;;;;5008865;28;21000;-55
2022/06/07 08:27:45;;;;;;;3.80;3.50;;;20.00;96.00;;;;;;4997167;28;20503;-55
2022/06/07 08:30:15;;;;;;;9.43;4.27;;;20.20;96.50;;;;;;4992628;28;21009;-56
2022/06/07 08:32:41;;;;;;;3.90;3.60;;;20.30;96.10;;;;;;4997794;28;22214;-53
2022/06/07 08:37:58;;;;;;;4.00;3.70;;;20.80;95.50;;;;;;4975835;28;20496;-57
2022/06/07 08:40:33;;;;;;;7.20;6.10;;;21.00;95.10;;;;;;4997703;28;20857;-58
2022/06/07 08:43:02;;;;;;;4.47;4.17;;;21.20;95.90;;;;;;4998936;28;20998;-56
2022/06/07 08:45:34;;;;;;;5.20;4.20;;;21.20;93.70;;;;;;4989681;28;20499;-58
2022/06/07 08:48:03;;;;;;;6.47;3.40;;;21.10;93.50;;;;;;4995595;28;20490;-55
2022/06/07 08:50:34;;;;;;;4.43;4.03;;;21.10;93.10;;;;;;4996771;28;21088;-56
2022/06/07 08:53:04;;;;;;;4.27;3.87;;;21.10;93.30;;;;;;4993867;28;21230;-55
2022/06/07 08:55:35;;;;;;;4.60;3.90;;;21.40;93.00;;;;;;4994836;28;20535;-54
2022/06/07 08:58:17;;;;;;;5.60;3.83;;;21.50;92.20;;;;;;4998658;28;21023;-55
2022/06/07 09:00:49;;;;;;;3.17;2.87;;;21.50;91.60;;;;;;4996833;28;20490;-57
2022/06/07 09:03:37;;;;;;;5.07;4.67;;;21.60;91.80;;;;;;4998449;28;20521;-54
2022/06/07 09:06:06;;;;;;;3.37;3.10;;;21.40;91.30;;;;;;4982194;28;20551;-55
2022/06/07 09:08:36;;;;;;;5.63;4.43;;;21.30;92.20;;;;;;4984397;28;20920;-57
2022/06/07 09:13:53;;;;;;;3.77;3.40;;;20.90;92.30;;;;;;4979726;28;20487;-55
2022/06/07 09:16:21;;;;;;;8.90;5.13;;;20.90;92.30;;;;;;4991422;28;20497;-56
2022/06/07 09:18:51;;;;;;;3.93;3.53;;;20.90;92.90;;;;;;4990733;28;21178;-54
2022/06/07 09:21:27;;;;;;;5.27;4.80;;;20.80;92.10;;;;;;4995547;28;20477;-56
2022/06/07 09:23:56;;;;;;;4.03;3.40;;;20.70;92.40;;;;;;5001360;28;20496;-55
2022/06/07 09:26:27;;;;;;;6.43;5.93;;;20.70;93.10;;;;;;4999676;28;20466;-57
2022/06/07 09:29:06;;;;;;;9.57;2.83;;;20.40;93.00;;;;;;5002250;28;21174;-55
2022/06/07 09:31:39;;;;;;;4.77;4.03;;;20.30;93.00;;;;;;4990459;28;20496;-55
2022/06/07 09:34:09;;;;;;;8.80;4.00;;;20.20;93.50;;;;;;4997987;28;20495;-55
2022/06/07 09:36:38;;;;;;;5.07;4.67;;;20.20;93.70;;;;;;5002662;28;20582;-54
2022/06/07 09:39:13;;;;;;;4.13;3.80;;;20.30;93.90;;;;;;4990805;28;20488;-55
2022/06/07 09:41:43;;;;;;;4.60;4.10;;;20.40;94.00;;;;;;4989582;28;21009;-55
2022/06/07 09:44:21;;;;;;;4.40;4.10;;;20.40;94.30;;;;;;4992007;28;20496;-55
2022/06/07 09:46:52;;;;;;;12.00;3.60;;;20.40;94.10;;;;;;4990961;28;20618;-53
2022/06/07 09:49:34;;;;;;;6.53;4.70;;;20.40;93.30;;;;;;5006104;28;21792;-54
2022/06/07 09:52:17;;;;;;;9.47;2.53;;;20.60;93.30;;;;;;4999317;28;20494;-53
2022/06/07 09:54:47;;;;;;;7.53;3.57;;;20.70;92.90;;;;;;4995959;28;20485;-53
2022/06/07 09:57:30;;;;;;;9.87;3.90;;;21.00;92.40;;;;;;5004084;28;20498;-55
2022/06/07 10:00:16;;;;;;;3.90;3.20;;;21.20;92.10;;;;;;5002857;28;20510;-56
2022/06/07 10:03:12;;;;;;;4.10;3.80;;;21.20;92.00;;;;;;4981546;28;21017;-54
2022/06/07 10:05:43;;;;;;;7.00;2.50;;;21.30;91.60;;;;;;4973823;28;20484;-53
2022/06/07 10:08:23;;;;;;;5.97;4.47;;;21.30;91.70;;;;;;4972408;28;20490;-53
2022/06/07 10:10:55;;;;;;;3.07;2.77;;;21.40;92.60;;;;;;4976197;28;20503;-56
2022/06/07 10:13:40;;;;;;;5.27;4.77;;;21.30;91.30;;;;;;4975435;28;20492;-55
2022/06/07 10:16:16;;;;;;;5.40;2.97;;;21.00;91.10;;;;;;4988051;28;20486;-55
2022/06/07 10:18:56;;;;;;;5.37;4.93;;;20.80;91.60;;;;;;4989580;28;20488;-54
2022/06/07 10:21:35;;;;;;;8.03;4.10;;;20.80;92.50;;;;;;4982274;28;20487;-54
2022/06/07 10:24:12;;;;;;;4.67;4.27;;;20.80;92.30;;;;;;4985350;28;20491;-53
2022/06/07 10:26:55;;;;;;;9.40;4.17;;;21.00;92.30;;;;;;5001099;28;21193;-54
2022/06/07 10:29:34;;;;;;;4.90;4.50;;;21.00;92.50;;;;;;4995792;28;20494;-55
2022/06/07 10:32:05;;;;;;;4.47;3.90;;;21.00;91.60;;;;;;4999651;28;20605;-55
2022/06/07 10:34:39;;;;;;;5.43;3.90;;;21.10;92.20;;;;;;5001478;28;25345;-55
2022/06/07 10:37:18;;;;;;;8.93;3.60;;;21.40;91.60;;;;;;5002595;28;20522;-53
2022/06/07 10:39:56;;;;;;;7.57;3.60;;;21.50;91.50;;;;;;4987594;28;20496;-55
2022/06/07 10:42:34;;;;;;;5.90;3.90;;;21.60;90.50;;;;;;4979800;28;21368;-55
2022/06/07 10:45:10;;;;;;;4.27;3.87;;;21.40;90.80;;;;;;4978954;28;20478;-53
2022/06/07 10:47:43;;;;;;;7.23;3.70;;;21.60;91.70;;;;;;4978351;28;21086;-54
2022/06/07 10:50:19;;;;;;;4.57;4.17;;;21.70;91.00;;;;;;4977341;28;20497;-54
2022/06/07 10:52:55;;;;;;;3.60;3.30;;;22.00;91.60;;;;;;4984165;28;20967;-53
2022/06/07 10:55:30;;;;;;;5.23;4.73;;;22.10;90.70;;;;;;4976347;28;20531;-53
2022/06/07 10:58:04;;;;;;;3.30;2.60;;;21.90;90.60;;;;;;4983284;28;20480;-54
2022/06/07 11:00:37;;;;;;;6.70;3.13;;;21.90;91.20;;;;;;4987566;28;21362;-54
2022/06/07 11:03:19;;;;;;;4.20;3.50;;;21.90;90.90;;;;;;4982652;28;20497;-53
2022/06/07 11:11:24;;;;;;;4.67;3.90;;;22.10;90.40;;;;;;4988624;28;20524;-55
2022/06/07 11:14:07;;;;;;;19.63;3.47;;;22.30;92.10;;;;;;5008749;28;20503;-53
2022/06/07 11:16:41;;;;;;;3.20;3.00;;;22.40;89.80;;;;;;5002520;28;21051;-56
2022/06/07 11:19:10;;;;;;;8.80;2.90;;;22.60;90.40;;;;;;5000680;28;20483;-55
2022/06/07 11:21:42;;;;;;;3.80;3.20;;;22.90;91.40;;;;;;4999419;28;20482;-55
2022/06/07 11:24:22;;;;;;;3.77;3.47;;;22.90;91.00;;;;;;5000260;28;24964;-54
2022/06/07 11:27:16;;;;;;;3.63;3.33;;;23.10;89.80;;;;;;4989591;28;20518;-54
2022/06/07 11:29:43;;;;;;;4.73;2.10;;;23.00;88.50;;;;;;4998935;28;20489;-55
2022/06/07 11:32:48;;;;;;;9.70;4.77;;;23.10;89.90;;;;;;4998974;28;20482;-52
2022/06/07 11:35:53;;;;;;;4.37;4.00;;;23.10;86.80;;;;;;5000365;28;20500;-55
2022/06/07 11:38:31;;;;;;;3.47;3.17;;;23.20;89.90;;;;;;4977238;28;21524;-57
2022/06/07 11:41:40;;;;;;;3.57;3.27;;;23.20;90.40;;;;;;5002464;28;20496;-54
2022/06/07 11:44:29;;;;;;;3.23;2.47;;;23.30;90.30;;;;;;4991611;28;20909;-54
2022/06/07 11:47:00;;;;;;;4.07;2.60;;;23.40;89.50;;;;;;4983199;28;21058;-55
2022/06/07 11:49:41;;;;;;;3.60;2.53;;;23.40;88.70;;;;;;4974292;28;20501;-55
2022/06/07 11:52:23;;;;;;;5.00;2.93;;;23.40;90.70;;;;;;4976851;28;20580;-54
2022/06/07 11:54:56;;;;;;;7.73;2.83;;;23.50;89.50;;;;;;4979367;28;20954;-54
2022/06/07 11:57:29;;;;;;;2.90;2.60;;;23.50;89.20;;;;;;4975957;28;20828;-54
2022/06/07 11:59:58;;;;;;;9.13;2.60;;;23.40;88.70;;;;;;4999202;28;21091;-54
2022/06/07 12:02:32;;;;;;;2.37;2.17;;;23.20;89.50;;;;;;4997585;28;21006;-53
2022/06/07 12:05:17;;;;;;;2.57;2.37;;;23.10;87.70;;;;;;5000807;28;20563;-53
2022/06/07 12:07:50;;;;;;;3.57;3.27;;;22.90;90.30;;;;;;5002115;28;20492;-55
2022/06/07 12:10:29;;;;;;;3.47;3.17;;;23.10;89.00;;;;;;4981391;28;20493;-53
2022/06/07 12:12:58;;;;;;;3.07;1.77;;;23.20;89.40;;;;;;4969653;28;20515;-55
2022/06/07 12:15:29;;;;;;;28.00;3.97;;;23.20;90.00;;;;;;4974620;28;20619;-54
2022/06/07 12:17:59;;;;;;;4.93;2.23;;;23.10;87.90;;;;;;4983612;28;20504;-56
2022/06/07 12:20:29;;;;;;;5.97;2.50;;;22.90;87.90;;;;;;4980384;28;20529;-54
2022/06/07 12:22:58;;;;;;;2.27;2.07;;;22.80;89.80;;;;;;4981131;28;20477;-55
2022/06/07 12:25:28;;;;;;;2.23;1.90;;;23.00;89.80;;;;;;4975248;28;20475;-55
2022/06/07 12:27:56;;;;;;;3.60;2.03;;;23.00;88.80;;;;;;4983955;28;20623;-55
2022/06/07 12:30:27;;;;;;;5.37;2.80;;;22.90;90.10;;;;;;4977176;28;20497;-53
2022/06/07 12:32:55;;;;;;;2.80;2.43;;;22.80;90.30;;;;;;4977499;28;20498;-55
2022/06/07 12:35:24;;;;;;;2.43;2.23;;;22.70;90.20;;;;;;4978034;28;20505;-55
2022/06/07 12:37:53;;;;;;;15.03;2.57;;;22.50;90.00;;;;;;4982729;28;20989;-55
2022/06/07 12:40:29;;;;;;;3.27;3.00;;;22.60;90.20;;;;;;4980885;28;20496;-53
2022/06/07 12:42:56;;;;;;;2.33;2.13;;;;;;;;;;4978183;28;20488;-53
2022/06/07 12:45:26;;;;;;;2.30;1.80;;;23.40;91.00;;;;;;4978703;28;20484;-53
2022/06/07 12:47:58;;;;;;;3.43;2.40;;;23.50;87.40;;;;;;5004379;28;20977;-54
2022/06/07 12:50:30;;;;;;;3.20;1.53;;;23.50;85.00;;;;;;4991175;28;20518;-54
2022/06/07 12:52:57;;;;;;;2.10;1.70;;;23.40;86.70;;;;;;4999430;28;20493;-57
2022/06/07 12:55:28;;;;;;;2.20;1.47;;;23.40;86.50;;;;;;4994907;28;20957;-56
2022/06/07 12:57:58;;;;;;;7.50;1.37;;;23.30;88.30;;;;;;5005606;28;20845;-56
2022/06/07 13:00:28;;;;;;;2.50;2.30;;;23.20;87.20;;;;;;4995140;28;20711;-55
2022/06/07 13:02:58;;;;;;;3.03;2.70;;;23.30;87.80;;;;;;4995741;28;20568;-55
2022/06/07 13:05:29;;;;;;;2.13;1.87;;;23.50;90.80;;;;;;4999165;28;20489;-56
2022/06/07 13:07:58;;;;;;;3.30;2.63;;;23.60;88.80;;;;;;5005756;28;20497;-53
2022/06/07 13:10:29;;;;;;;7.10;2.00;;;23.50;85.80;;;;;;5004244;28;21475;-55
2022/06/07 13:12:59;;;;;;;1.97;1.40;;;23.50;86.30;;;;;;5004833;28;21259;-54
2022/06/07 13:15:29;;;;;;;3.73;2.93;;;23.40;89.10;;;;;;5003612;28;20499;-55
2022/06/07 13:18:00;;;;;;;2.70;1.40;;;23.20;88.00;;;;;;5004828;28;20526;-56
2022/06/07 13:20:30;;;;;;;6.47;5.77;;;23.00;89.10;;;;;;5002364;28;20931;-59
2022/06/07 13:22:57;;;;;;;26.37;2.90;;;22.50;91.90;;;;;;5002498;28;21284;-58